Aérodrome :
LOGIN :

S'inscrire | Disclaimer

   EN    FR    IT 

 










Légende :    VFR   VFR Marginal   IFR   IFR Intensif   IFR Très Intensif
Visi : 
Plafond : 
>= 8 km
>= 3000ft
5 à 8 km
1000 à 3000 ft
1500m à 5 km
500 à 1000 ft
800 à 1500m
200 à 500 ft
< 800m
< 200 ft
Symboles :   Orages  Brouillard  Fortes neiges  Fortes précipitations  Vent > 20 kt
SIGMETs :   Divers  Orages  Givrage  Turbulence  Onde Orograph.  Cendres Volcan.






- Altitude de l'aérodrome : 961 ft
- Code IATA : VIN


UKWW - Gavryshivka

METARs EXPIRÉS :
  • 291800Z 27006MPS 9999 NSC 01/M01 Q1001 R31/290150 NOSIG
  • 291730Z 28006MPS 9999 NSC 01/M01 Q1001 R31/290150 NOSIG

TAF TAF UKWW
Valide du 29 à 18h jusqu'au 30 à 03h UTC


291710Z 2918/3003 27006G11MPS 6000 BKN010 TX00/2918Z TNM01/3003Z
TEMPO 2918/2922 2100 -SHSN BKN005 BKN015CB



MET'MAP, la Météo Aéronautique d'un coup d'oeil ! - Copyright ORBIFLY Décembre 2007 - Disclaimer

ORBIFLY MET'MAP TEAM :

Programmation & Développement : Alexandra Zaïnal
Sur une idée originale de : Baudouin d'Aumeries
Assistance à la programmation : Marc-Olivier Méhu
Soutien technique & logistique : Manuel Goepfert

Contact : metmap@orbifly.com




SOURCES & CREDITS :

   NOAA